createdAt,value
2019-06-20T00:00:44.857Z,40.79
2019-06-20T00:03:13.467Z,40.89
2019-06-20T00:05:41.985Z,41.14
2019-06-20T00:08:10.751Z,41.06
2019-06-20T00:10:39.225Z,48.92
2019-06-20T00:13:07.823Z,51.82
2019-06-20T00:15:36.853Z,55.68
2019-06-20T00:18:05.428Z,56.69
2019-06-20T00:20:33.912Z,61.02
2019-06-20T00:23:02.391Z,58.78
2019-06-20T00:25:31.340Z,60.91
2019-06-20T00:27:59.802Z,61.15
2019-06-20T00:30:28.271Z,62.44
2019-06-20T00:32:56.757Z,63.14
2019-06-20T00:35:25.215Z,61.42
2019-06-20T00:37:53.678Z,61.46
2019-06-20T00:40:22.131Z,61.74
2019-06-20T00:42:50.619Z,60.91
2019-06-20T00:45:19.433Z,61.30
2019-06-20T00:47:48.074Z,61.84
2019-06-20T00:50:16.587Z,62.63
2019-06-20T00:52:45.075Z,62.73
2019-06-20T00:55:13.747Z,64.36
2019-06-20T00:57:42.237Z,65.98
2019-06-20T01:00:11.181Z,65.12
2019-06-20T01:02:39.652Z,62.56
2019-06-20T01:05:08.260Z,64.61
2019-06-20T01:07:36.758Z,62.19
2019-06-20T01:10:09.914Z,62.57
2019-06-20T01:12:38.410Z,56.43
2019-06-20T01:15:08.402Z,54.37
2019-06-20T01:17:36.957Z,53.65
2019-06-20T01:20:11.853Z,53.86
2019-06-20T01:22:40.397Z,51.62
2019-06-20T01:25:09.127Z,52.18
2019-06-20T01:27:38.172Z,52.66
2019-06-20T01:30:10.141Z,52.78
2019-06-20T01:32:38.695Z,52.86
2019-06-20T01:35:10.265Z,53.03
2019-06-20T01:37:38.797Z,53.18
2019-06-20T01:40:07.647Z,53.31
2019-06-20T01:42:36.223Z,53.67
2019-06-20T01:45:06.676Z,54.13
2019-06-20T01:47:35.346Z,54.53
2019-06-20T01:50:05.362Z,54.55
2019-06-20T01:52:34.150Z,55.15
2019-06-20T01:55:02.586Z,55.30
2019-06-20T01:57:31.053Z,55.54
2019-06-20T02:00:00.403Z,55.26
2019-06-20T02:02:28.874Z,55.43
2019-06-20T02:04:57.390Z,55.80
2019-06-20T02:07:28.264Z,56.08
2019-06-20T02:09:56.124Z,56.16
2019-06-20T02:12:24.580Z,56.40
2019-06-20T02:14:52.987Z,56.65
2019-06-20T02:17:21.437Z,56.76
2019-06-20T02:19:49.933Z,56.85
2019-06-20T02:22:18.338Z,57.39
2019-06-20T02:24:46.832Z,57.22
2019-06-20T02:27:15.343Z,57.51
2019-06-20T02:29:43.785Z,57.66
2019-06-20T02:32:12.248Z,57.91
2019-06-20T02:34:40.694Z,57.90
2019-06-20T02:37:09.246Z,57.87
2019-06-20T02:39:37.640Z,57.85
2019-06-20T02:42:06.245Z,58.10
2019-06-20T02:44:36.253Z,58.39
2019-06-20T02:47:04.785Z,58.27
2019-06-20T02:49:33.240Z,58.49
2019-06-20T02:52:01.715Z,58.64
2019-06-20T02:54:30.255Z,58.73
2019-06-20T02:56:58.811Z,59.16
2019-06-20T02:59:27.347Z,60.02
2019-06-20T03:01:56.165Z,61.20
2019-06-20T03:04:24.628Z,61.76
2019-06-20T03:06:53.151Z,62.42
2019-06-20T03:09:21.643Z,62.34
2019-06-20T03:11:50.412Z,62.48
2019-06-20T03:14:18.891Z,62.52
2019-06-20T03:16:47.334Z,62.45
2019-06-20T03:19:15.816Z,62.63
2019-06-20T03:21:44.269Z,62.61
2019-06-20T03:24:12.755Z,62.74
2019-06-20T03:26:41.272Z,63.13
2019-06-20T03:29:09.749Z,63.55
2019-06-20T03:31:38.310Z,63.24
2019-06-20T03:34:06.863Z,63.12
2019-06-20T03:36:35.420Z,63.13
2019-06-20T03:39:05.495Z,63.20
2019-06-20T03:41:33.978Z,63.20
2019-06-20T03:44:02.430Z,63.32
2019-06-20T03:46:30.861Z,63.49
2019-06-20T03:48:59.310Z,63.86
2019-06-20T03:51:27.781Z,63.83
2019-06-20T03:53:56.296Z,64.00
2019-06-20T03:56:24.763Z,63.29
2019-06-20T03:58:53.291Z,63.27
2019-06-20T04:01:21.660Z,63.53
2019-06-20T04:03:50.078Z,64.27
2019-06-20T04:06:18.625Z,64.48
2019-06-20T04:08:47.166Z,64.48
2019-06-20T04:11:15.615Z,64.59
2019-06-20T04:13:44.146Z,64.14
2019-06-20T04:16:12.607Z,64.19
2019-06-20T04:18:41.076Z,64.12
2019-06-20T04:21:09.587Z,64.12
2019-06-20T04:23:37.959Z,63.75
2019-06-20T04:26:06.372Z,63.89
2019-06-20T04:28:34.852Z,64.02
2019-06-20T04:31:03.326Z,63.86
2019-06-20T04:33:31.773Z,63.63
2019-06-20T04:36:00.303Z,63.76
2019-06-20T04:38:28.763Z,63.64
2019-06-20T04:40:57.265Z,62.47
2019-06-20T04:43:25.861Z,62.38
2019-06-20T04:45:59.058Z,63.32
2019-06-20T04:48:27.554Z,63.04
2019-06-20T04:50:56.005Z,63.07
2019-06-20T04:53:24.478Z,63.40
2019-06-20T04:55:52.929Z,63.93
2019-06-20T04:58:21.419Z,64.05
2019-06-20T05:00:49.935Z,63.94
2019-06-20T05:03:18.468Z,63.60
2019-06-20T05:05:46.937Z,63.75
2019-06-20T05:08:15.402Z,63.82
2019-06-20T05:10:43.968Z,62.94
2019-06-20T05:13:12.432Z,63.10
2019-06-20T05:15:52.191Z,63.80
2019-06-20T05:18:11.256Z,62.64
2019-06-20T05:20:39.727Z,63.25
2019-06-20T05:23:08.145Z,63.01
2019-06-20T05:25:36.734Z,62.97
2019-06-20T05:28:05.264Z,62.98
2019-06-20T05:30:33.818Z,62.70
2019-06-20T05:33:02.291Z,62.77
2019-06-20T05:35:30.746Z,62.37
2019-06-20T05:37:59.299Z,61.40
2019-06-20T05:40:27.913Z,60.30
2019-06-20T05:42:56.505Z,60.98
2019-06-20T05:45:25.124Z,61.26
2019-06-20T05:47:53.544Z,61.75
2019-06-20T05:50:22.079Z,62.04
2019-06-20T05:52:50.538Z,61.92
2019-06-20T05:55:19.100Z,62.44
2019-06-20T05:57:47.679Z,62.80
2019-06-20T06:00:16.196Z,64.21
2019-06-20T06:02:44.644Z,65.02
2019-06-20T06:05:14.374Z,65.65
2019-06-20T06:07:42.822Z,66.20
2019-06-20T06:10:12.992Z,66.60
2019-06-20T06:12:41.496Z,67.82
2019-06-20T06:15:10.279Z,68.44
2019-06-20T06:17:38.782Z,70.07
2019-06-20T06:20:08.013Z,70.80
2019-06-20T06:22:36.778Z,72.14
2019-06-20T06:25:06.905Z,73.60
2019-06-20T06:27:35.392Z,76.79
2019-06-20T06:30:08.615Z,77.65
2019-06-20T06:32:40.424Z,79.24
2019-06-20T06:35:07.975Z,82.12
2019-06-20T06:37:36.655Z,82.91
2019-06-20T06:40:12.651Z,83.67
2019-06-20T06:42:41.312Z,84.39
2019-06-20T06:45:10.981Z,84.19
2019-06-20T06:47:39.525Z,83.67
2019-06-20T06:50:08.995Z,82.06
2019-06-20T06:52:37.475Z,81.87
2019-06-20T06:55:07.309Z,81.77
2019-06-20T06:57:35.910Z,84.08
2019-06-20T07:00:07.437Z,83.65
2019-06-20T07:02:35.971Z,84.71
2019-06-20T07:05:06.021Z,84.89
2019-06-20T07:07:34.534Z,85.63
2019-06-20T07:10:04.472Z,85.14
2019-06-20T07:12:32.922Z,85.08
2019-06-20T07:15:01.328Z,83.63
2019-06-20T07:17:29.867Z,82.07
2019-06-20T07:19:58.776Z,81.59
2019-06-20T07:22:27.169Z,80.55
2019-06-20T07:24:55.718Z,80.27
2019-06-20T07:27:24.189Z,79.87
2019-06-20T07:29:52.569Z,78.56
2019-06-20T07:32:21.118Z,76.06
2019-06-20T07:34:50.268Z,74.36
2019-06-20T07:37:18.852Z,76.21
2019-06-20T07:39:47.433Z,77.37
2019-06-20T07:42:15.966Z,77.91
2019-06-20T07:44:44.414Z,76.69
2019-06-20T07:47:17.507Z,76.88
2019-06-20T07:49:43.144Z,77.26
2019-06-20T07:52:11.625Z,75.74
2019-06-20T07:54:40.082Z,75.54
2019-06-20T07:57:08.612Z,75.66
2019-06-20T07:59:37.025Z,75.74
2019-06-20T08:02:05.590Z,74.58
2019-06-20T08:04:33.999Z,74.79
2019-06-20T08:07:02.442Z,74.81
2019-06-20T08:09:44.466Z,75.24
2019-06-20T08:12:01.115Z,73.92
2019-06-20T08:14:29.646Z,73.49
2019-06-20T08:16:58.046Z,73.57
2019-06-20T08:19:26.531Z,72.81
2019-06-20T08:21:54.989Z,71.83
2019-06-20T08:24:23.441Z,70.96
2019-06-20T08:26:51.919Z,70.12
2019-06-20T08:29:21.488Z,70.21
2019-06-20T08:31:50.269Z,68.75
2019-06-20T08:34:18.793Z,68.74
2019-06-20T08:36:47.270Z,68.66
2019-06-20T08:39:15.671Z,65.74
2019-06-20T08:41:44.199Z,64.21
2019-06-20T08:44:12.654Z,63.83
2019-06-20T08:46:41.201Z,62.71
2019-06-20T08:49:09.745Z,62.15
2019-06-20T08:51:38.249Z,59.73
2019-06-20T08:54:06.773Z,57.26
2019-06-20T08:56:35.277Z,54.20
2019-06-20T08:59:04.880Z,52.08
2019-06-20T09:01:33.549Z,53.66
2019-06-20T09:06:30.495Z,56.80
2019-06-20T09:09:00.065Z,59.02
2019-06-20T09:11:28.582Z,61.41
2019-06-20T09:13:57.320Z,61.84
2019-06-20T09:16:26.149Z,62.77
2019-06-20T09:18:54.994Z,62.93
2019-06-20T09:21:25.019Z,62.76
2019-06-20T09:23:54.199Z,62.97
2019-06-20T09:26:22.822Z,62.89
2019-06-20T09:28:52.691Z,62.58
2019-06-20T09:31:21.685Z,61.64
2019-06-20T09:33:52.170Z,62.53
2019-06-20T09:36:20.541Z,62.83
2019-06-20T09:38:48.891Z,62.25
2019-06-20T09:41:17.383Z,61.69
2019-06-20T09:43:45.841Z,61.49
2019-06-20T09:46:14.284Z,61.41
2019-06-20T09:48:42.852Z,62.11
2019-06-20T09:51:11.301Z,61.15
2019-06-20T09:53:39.868Z,61.33
2019-06-20T09:56:08.415Z,61.13
2019-06-20T09:58:36.800Z,61.18
2019-06-20T10:01:05.241Z,60.64
2019-06-20T10:03:33.712Z,60.45
2019-06-20T10:06:12.801Z,61.11
2019-06-20T10:08:32.571Z,61.39
2019-06-20T10:11:01.062Z,61.04
2019-06-20T10:13:32.640Z,60.89
2019-06-20T10:15:59.811Z,60.73
2019-06-20T10:18:28.333Z,61.58
2019-06-20T10:20:57.693Z,61.98
2019-06-20T10:23:26.245Z,62.20
2019-06-20T10:25:54.703Z,61.85
2019-06-20T10:28:23.238Z,61.86
2019-06-20T10:30:53.355Z,61.45
2019-06-20T10:33:21.990Z,61.16
2019-06-20T10:35:50.454Z,57.54
2019-06-20T10:38:18.980Z,57.37
2019-06-20T10:40:47.966Z,56.53
2019-06-20T10:43:16.548Z,55.38
2019-06-20T10:45:45.836Z,54.54
2019-06-20T10:48:14.438Z,54.53
2019-06-20T10:50:44.048Z,53.51
2019-06-20T10:53:12.976Z,54.53
2019-06-20T10:55:43.238Z,54.50
2019-06-20T10:58:12.037Z,55.44
2019-06-20T11:00:41.720Z,56.28
2019-06-20T11:03:10.876Z,54.95
2019-06-20T11:05:40.878Z,55.33
2019-06-20T11:08:09.612Z,55.71
2019-06-20T11:10:40.039Z,55.71
2019-06-20T11:13:08.671Z,56.55
2019-06-20T11:15:37.533Z,56.08
2019-06-20T11:18:07.348Z,54.56
2019-06-20T11:20:35.905Z,54.19
2019-06-20T11:23:04.412Z,53.79
2019-06-20T11:25:32.986Z,53.10
2019-06-20T11:28:01.436Z,51.73
2019-06-20T11:30:44.777Z,51.30
2019-06-20T11:33:01.748Z,51.50
2019-06-20T11:35:30.293Z,52.24
2019-06-20T11:37:58.763Z,51.77
2019-06-20T11:40:27.415Z,51.53
2019-06-20T11:42:55.962Z,49.63
2019-06-20T11:45:24.478Z,47.78
2019-06-20T11:47:52.965Z,46.77
2019-06-20T11:50:21.841Z,45.32
2019-06-20T11:52:50.385Z,44.36
2019-06-20T11:55:19.029Z,44.44
2019-06-20T11:57:47.453Z,44.93
2019-06-20T12:00:17.157Z,46.75
2019-06-20T12:02:46.212Z,47.97
2019-06-20T12:05:15.348Z,48.69
2019-06-20T12:07:45.550Z,49.97
2019-06-20T12:10:15.670Z,49.74
2019-06-20T12:12:44.737Z,48.70
2019-06-20T12:15:15.886Z,45.46
2019-06-20T12:17:45.351Z,39.77
2019-06-20T12:20:14.791Z,35.52
2019-06-20T12:22:44.914Z,32.86
2019-06-20T12:25:15.492Z,31.65
2019-06-20T12:27:45.467Z,32.64
2019-06-20T12:30:16.378Z,33.77
2019-06-20T12:32:44.936Z,34.45
2019-06-20T12:35:13.887Z,35.69
2019-06-20T12:37:42.794Z,36.35
2019-06-20T12:40:13.497Z,36.51
2019-06-20T12:42:43.217Z,37.16
2019-06-20T12:45:14.788Z,37.48
2019-06-20T12:47:43.811Z,38.54
2019-06-20T12:50:13.998Z,38.00
2019-06-20T12:52:42.651Z,36.37
2019-06-20T12:55:12.062Z,31.56
2019-06-20T12:57:42.101Z,27.68
2019-06-20T13:00:12.839Z,26.09
2019-06-20T13:02:41.944Z,25.60
2019-06-20T13:05:11.898Z,27.90
2019-06-20T13:07:42.214Z,30.09
2019-06-20T13:10:11.160Z,31.62
2019-06-20T13:12:40.941Z,33.52
2019-06-20T13:15:10.216Z,36.57
2019-06-20T13:17:39.967Z,38.26
2019-06-20T13:20:09.477Z,40.18
2019-06-20T13:22:39.523Z,42.02
2019-06-20T13:25:08.578Z,44.04
2019-06-20T13:27:38.125Z,45.61
2019-06-20T13:30:11.166Z,46.22
2019-06-20T13:32:41.731Z,46.51
2019-06-20T13:35:10.872Z,47.45
2019-06-20T13:37:40.312Z,47.43
2019-06-20T13:40:13.800Z,48.84
2019-06-20T13:42:44.069Z,49.21
2019-06-20T13:45:18.091Z,51.54
2019-06-20T13:47:47.824Z,51.54
2019-06-20T13:50:16.554Z,51.92
2019-06-20T13:52:46.840Z,52.14
2019-06-20T13:55:15.248Z,53.57
2019-06-20T13:57:45.249Z,55.33
2019-06-20T14:00:14.490Z,55.40
2019-06-20T14:02:44.921Z,52.19
2019-06-20T14:05:14.726Z,51.81
2019-06-20T14:07:46.750Z,47.55
2019-06-20T14:10:13.485Z,45.32
2019-06-20T14:12:43.135Z,46.09
2019-06-20T14:15:12.978Z,48.81
2019-06-20T14:17:43.095Z,52.21
2019-06-20T14:20:12.067Z,54.30
2019-06-20T14:22:41.422Z,56.13
2019-06-20T14:25:11.449Z,59.75
2019-06-20T14:27:39.946Z,61.35
2019-06-20T14:30:10.150Z,64.49
2019-06-20T14:32:38.717Z,65.48
2019-06-20T14:35:07.343Z,65.70
2019-06-20T14:37:35.873Z,65.91
2019-06-20T14:40:06.780Z,65.77
2019-06-20T14:42:35.019Z,66.16
2019-06-20T14:45:05.614Z,66.01
2019-06-20T14:47:34.229Z,66.30
2019-06-20T14:50:02.762Z,66.61
2019-06-20T14:52:31.253Z,65.68
2019-06-20T14:54:59.762Z,66.40
2019-06-20T14:57:28.312Z,65.91
2019-06-20T14:59:56.809Z,65.49
2019-06-20T15:02:37.512Z,65.35
2019-06-20T15:04:55.511Z,64.48
2019-06-20T15:07:23.961Z,62.36
2019-06-20T15:09:53.260Z,60.95
2019-06-20T15:12:21.857Z,59.81
2019-06-20T15:14:51.389Z,59.06
2019-06-20T15:17:20.107Z,55.86
2019-06-20T15:19:49.459Z,55.04
2019-06-20T15:22:17.945Z,53.07
2019-06-20T15:24:48.617Z,52.45
2019-06-20T15:27:16.710Z,51.86
2019-06-20T15:29:47.052Z,51.57
2019-06-20T15:32:15.578Z,52.55
2019-06-20T15:34:44.112Z,52.25
2019-06-20T15:37:12.494Z,51.45
2019-06-20T15:39:41.438Z,50.76
2019-06-20T15:42:09.979Z,51.36
2019-06-20T15:44:38.574Z,51.62
2019-06-20T15:47:07.821Z,51.40
2019-06-20T15:49:36.319Z,51.37
2019-06-20T15:52:04.867Z,50.00
2019-06-20T15:54:33.471Z,50.29
2019-06-20T15:57:01.930Z,50.67
2019-06-20T15:59:30.463Z,50.26
2019-06-20T16:01:58.992Z,49.73
2019-06-20T16:04:27.461Z,49.94
2019-06-20T16:06:56.065Z,49.91
2019-06-20T16:09:24.519Z,50.41
2019-06-20T16:11:53.035Z,50.57
2019-06-20T16:14:21.458Z,49.44
2019-06-20T16:16:49.927Z,49.45
2019-06-20T16:19:18.563Z,49.88
2019-06-20T16:21:47.113Z,50.67
2019-06-20T16:24:15.574Z,50.85
2019-06-20T16:26:44.171Z,50.84
2019-06-20T16:29:12.649Z,50.71
2019-06-20T16:31:41.103Z,51.03
2019-06-20T16:34:09.725Z,51.72
2019-06-20T16:36:38.314Z,51.85
2019-06-20T16:39:08.542Z,52.43
2019-06-20T16:41:37.054Z,52.61
2019-06-20T16:44:06.123Z,53.11
2019-06-20T16:46:34.627Z,52.60
2019-06-20T16:49:03.198Z,53.05
2019-06-20T16:51:31.758Z,52.92
2019-06-20T16:54:00.252Z,52.81
2019-06-20T16:56:28.749Z,52.06
2019-06-20T16:58:57.203Z,53.63
2019-06-20T17:01:25.774Z,54.08
2019-06-20T17:03:54.238Z,54.29
2019-06-20T17:06:22.726Z,54.68
2019-06-20T17:08:51.152Z,54.72
2019-06-20T17:11:19.634Z,55.24
2019-06-20T17:13:48.157Z,55.49
2019-06-20T17:16:16.747Z,55.57
2019-06-20T17:18:45.270Z,55.80
2019-06-20T17:21:13.811Z,55.71
2019-06-20T17:23:42.329Z,55.52
2019-06-20T17:26:10.941Z,54.67
2019-06-20T17:28:39.459Z,54.78
2019-06-20T17:31:08.093Z,54.87
2019-06-20T17:33:36.546Z,55.03
2019-06-20T17:36:17.672Z,54.95
2019-06-20T17:38:35.375Z,55.50
2019-06-20T17:41:03.930Z,55.70
2019-06-20T17:43:32.321Z,55.56
2019-06-20T17:46:00.760Z,55.42
2019-06-20T17:48:29.286Z,56.10
2019-06-20T17:50:57.735Z,56.21
2019-06-20T17:53:26.271Z,55.73
2019-06-20T17:55:54.678Z,56.00
2019-06-20T17:58:23.122Z,56.21
2019-06-20T18:00:51.594Z,56.31
2019-06-20T18:03:20.119Z,56.15
2019-06-20T18:05:48.612Z,55.77
2019-06-20T18:08:17.069Z,56.06
2019-06-20T18:10:45.565Z,56.08
2019-06-20T18:13:14.028Z,55.63
2019-06-20T18:15:42.548Z,55.22
2019-06-20T18:18:11.100Z,55.43
2019-06-20T18:20:39.562Z,55.18
2019-06-20T18:23:08.089Z,55.61
2019-06-20T18:25:38.051Z,55.42
2019-06-20T18:28:06.559Z,55.34
2019-06-20T18:30:43.114Z,55.29
2019-06-20T18:33:11.893Z,55.49
2019-06-20T18:35:40.400Z,55.28
2019-06-20T18:38:08.970Z,55.41
2019-06-20T18:40:37.509Z,55.57
2019-06-20T18:43:06.128Z,55.80
2019-06-20T18:45:34.681Z,55.76
2019-06-20T18:48:03.281Z,56.12
2019-06-20T18:50:31.740Z,56.26
2019-06-20T18:53:00.259Z,56.49
2019-06-20T18:55:28.687Z,56.43
2019-06-20T18:57:57.212Z,56.53
2019-06-20T19:00:34.729Z,56.46
2019-06-20T19:02:56.898Z,57.15
2019-06-20T19:05:25.380Z,58.02
2019-06-20T19:07:53.919Z,58.44
2019-06-20T19:10:22.890Z,58.63
2019-06-20T19:12:51.520Z,59.00
2019-06-20T19:15:20.680Z,59.36
2019-06-20T19:17:49.273Z,59.47
2019-06-20T19:20:18.035Z,59.71
2019-06-20T19:22:46.622Z,59.71
2019-06-20T19:25:15.131Z,59.86
2019-06-20T19:27:46.519Z,59.96
2019-06-20T19:30:15.955Z,60.25
2019-06-20T19:32:44.460Z,60.39
2019-06-20T19:35:13.428Z,60.62
2019-06-20T19:37:42.310Z,60.60
2019-06-20T19:40:12.833Z,60.84
2019-06-20T19:42:41.418Z,60.87
2019-06-20T19:45:11.081Z,61.06
2019-06-20T19:47:40.294Z,61.12
2019-06-20T19:50:09.165Z,61.09
2019-06-20T19:52:38.120Z,61.18
2019-06-20T19:55:06.786Z,61.13
2019-06-20T19:57:35.328Z,61.03
2019-06-20T20:00:10.105Z,61.06
2019-06-20T20:02:38.567Z,61.01
2019-06-20T20:05:18.284Z,61.07
2019-06-20T20:07:38.612Z,61.13
2019-06-20T20:10:08.453Z,61.15
2019-06-20T20:12:37.297Z,61.07
2019-06-20T20:15:08.156Z,61.15
2019-06-20T20:17:36.749Z,61.13
2019-06-20T20:20:08.896Z,61.54
2019-06-20T20:22:37.458Z,61.77
2019-06-20T20:25:07.865Z,62.07
2019-06-20T20:27:36.457Z,62.18
2019-06-20T20:30:09.314Z,62.06
2019-06-20T20:32:37.956Z,61.86
2019-06-20T20:35:07.074Z,62.00
2019-06-20T20:37:36.639Z,62.12
2019-06-20T20:40:09.296Z,62.21
2019-06-20T20:42:37.760Z,62.36
2019-06-20T20:45:08.488Z,62.56
2019-06-20T20:47:37.026Z,62.73
2019-06-20T20:50:07.084Z,62.62
2019-06-20T20:52:35.593Z,62.58
2019-06-20T20:55:06.425Z,62.58
2019-06-20T20:57:35.069Z,62.57
2019-06-20T21:00:12.476Z,62.06
2019-06-20T21:02:41.173Z,63.20
2019-06-20T21:05:09.849Z,63.43
2019-06-20T21:07:39.319Z,63.27
2019-06-20T21:10:10.613Z,63.11
2019-06-20T21:12:39.198Z,62.77
2019-06-20T21:15:08.504Z,62.64
2019-06-20T21:17:37.139Z,63.49
2019-06-20T21:20:08.477Z,63.22
2019-06-20T21:22:37.070Z,64.04
2019-06-20T21:25:08.635Z,64.18
2019-06-20T21:27:37.122Z,63.74
2019-06-20T21:30:09.853Z,63.56
2019-06-20T21:32:38.533Z,63.84
2019-06-20T21:35:10.245Z,64.24
2019-06-20T21:37:41.145Z,64.74
2019-06-20T21:40:10.037Z,64.72
2019-06-20T21:42:38.575Z,64.44
2019-06-20T21:45:08.392Z,63.85
2019-06-20T21:47:37.031Z,63.67
2019-06-20T21:50:08.723Z,63.95
2019-06-20T21:52:37.716Z,64.85
2019-06-20T21:55:07.279Z,65.65
2019-06-20T21:57:35.741Z,65.91
2019-06-20T22:00:25.263Z,65.86
2019-06-20T22:02:53.863Z,65.88
2019-06-20T22:05:22.380Z,65.59
2019-06-20T22:07:50.981Z,65.86
2019-06-20T22:10:19.544Z,66.80
2019-06-20T22:12:48.005Z,68.31
2019-06-20T22:15:16.649Z,69.59
2019-06-20T22:17:45.160Z,70.69
2019-06-20T22:20:14.040Z,72.44
2019-06-20T22:22:42.545Z,74.98
2019-06-20T22:25:11.306Z,76.25
2019-06-20T22:27:39.835Z,77.46
2019-06-20T22:30:11.433Z,78.26
2019-06-20T22:32:39.959Z,79.26
2019-06-20T22:35:09.094Z,79.93
2019-06-20T22:37:37.634Z,80.56
2019-06-20T22:40:08.459Z,78.99
2019-06-20T22:42:36.932Z,79.83
2019-06-20T22:45:07.628Z,81.36
2019-06-20T22:47:36.108Z,82.46
2019-06-20T22:50:07.694Z,82.05
2019-06-20T22:52:36.103Z,80.90
2019-06-20T22:55:05.823Z,79.47
2019-06-20T22:57:34.310Z,80.86
2019-06-20T23:00:03.714Z,81.90
2019-06-20T23:02:32.291Z,83.84
2019-06-20T23:05:00.671Z,85.14
2019-06-20T23:07:29.137Z,85.32
2019-06-20T23:10:09.995Z,86.20
2019-06-20T23:12:27.706Z,85.66
2019-06-20T23:14:56.179Z,84.94
2019-06-20T23:17:24.643Z,85.01
2019-06-20T23:19:53.190Z,84.70
2019-06-20T23:22:21.629Z,85.66
2019-06-20T23:24:50.178Z,86.49
2019-06-20T23:27:18.561Z,86.23
2019-06-20T23:29:46.978Z,85.80
2019-06-20T23:32:15.492Z,86.36
2019-06-20T23:34:43.953Z,86.39
2019-06-20T23:37:13.313Z,86.22
2019-06-20T23:39:41.961Z,86.32
2019-06-20T23:42:10.540Z,86.32
2019-06-20T23:44:38.999Z,86.47
2019-06-20T23:47:07.532Z,87.07
2019-06-20T23:49:35.979Z,87.04
2019-06-20T23:52:09.239Z,87.30
2019-06-20T23:54:37.710Z,87.60
2019-06-20T23:57:06.211Z,87.90
2019-06-20T23:59:34.732Z,88.01
